Bei Facebook empfehlenBei Twitter postenGoogle plusPinterest

Das Wetter im Erzgebirge am 05.11.2016

Wetter und Klima am 05.11.2016 Holzhau im Erzgebirge (630m ü.NN)
Letzte gemessene Temperatur und Uhrzeit der Messung23:45:00 Uhr3.90 °C
Temperatur (Maximum / Höchstwert) und Uhrzeit der Messung14:00:00 Uhr6.20 °C
Temperatur (Minimum / Tiefstwert) und Uhrzeit der Messung03:15:002.10 °C
Errechneter Absolutwert der Temperaturschwankungen zwischen Tmin und Tmax des Tages4.10 K
Errechnete Tagesmitteltemperatur3.33542 °C
Gesamt - Niederschlag des Tages (in flüssiger Form)1.04 Liter / m²
Luftdruck (Maximum / Höchstwert) und Zeitpunkt der Messung00:15:00 Uhr1007.20 hPa
Luftdruck (Minimum / Tiefstwert) und Zeitpunkt der Messung18:30:00 Uhr994.90 hPa
Errechneter Absolutwert der Luftdruckschwankungen des Tages12.30 hPa
Höchste gemessene Windgeschwindigkeit und Uhrzeit der Messung23:45:00 Uhr0.00 km/h
Errechnete Windhäufigkeit in Relation zu den Messwerten des Tages0.00000 %
Niedrigste Windkühle (Windchill) und Zeitpunkt der Messung03:15:00 Uhr2.10 °C
Taupunkt (Maximum / Höchstwert) und Uhrzeit der Messung14:00:00 Uhr4.70 °C
Taupunkt (Minimum / Tiefstwert) und Uhrzeit der Messung09:00:000.30 °C
Anzahl der automatisch eingelesenen Messwerte 96

Detaillierte Wetter- und Klima- Messwerte für den 05.11.2016 in Holzhau im Erzgebirge (630m ü.NN)
ZeitTemperaturLuftdruckRel. LuftfeuchteWindWindrichtungWindchillTaupunktNiederschlag l/m²
23:45:003.90 °C996.00 hPa95.00 %3.20 °C1.04
23:30:004.00 °C995.90 hPa95.00 %3.30 °C1.04
23:15:004.10 °C995.90 hPa95.00 %3.40 °C1.04
23:00:004.10 °C996.20 hPa95.00 %3.40 °C1.04
22:45:004.20 °C995.90 hPa95.00 %3.50 °C1.04
22:30:004.30 °C995.50 hPa94.00 %3.40 °C1.04
22:15:004.40 °C995.70 hPa94.00 %3.50 °C1.04
22:00:004.40 °C995.60 hPa94.00 %3.50 °C1.04
21:45:004.40 °C995.60 hPa94.00 %3.50 °C1.04
21:30:004.40 °C995.40 hPa94.00 %3.50 °C0.52
21:15:004.40 °C995.10 hPa94.00 %3.50 °C0.52
21:00:004.40 °C995.30 hPa94.00 %3.50 °C0.52
20:45:004.40 °C995.00 hPa94.00 %3.50 °C0.52
20:30:004.40 °C995.00 hPa93.00 %3.40 °C0.52
20:15:004.10 °C995.10 hPa93.00 %3.10 °C0.52
20:00:003.80 °C995.00 hPa93.00 %2.80 °C0.52
19:45:003.60 °C995.20 hPa93.00 %2.60 °C 
19:30:003.60 °C995.00 hPa92.00 %2.40 °C 
19:15:003.40 °C995.20 hPa92.00 %2.20 °C 
19:00:003.20 °C995.20 hPa92.00 %2.00 °C 
18:45:003.00 °C995.10 hPa92.00 %1.80 °C 
18:30:002.70 °C994.90 hPa91.00 %1.40 °C 
18:15:002.60 °C995.30 hPa91.00 %1.30 °C 
18:00:002.50 °C995.00 hPa90.00 %1.00 °C 
17:45:002.40 °C995.30 hPa90.00 %0.90 °C 
17:30:002.60 °C995.70 hPa90.00 %1.10 °C 
17:15:002.90 °C996.00 hPa89.00 %1.30 °C 
17:00:003.10 °C996.30 hPa89.00 %1.50 °C 
16:45:003.10 °C996.00 hPa89.00 %1.50 °C 
16:30:002.90 °C996.00 hPa89.00 %1.30 °C 
16:15:003.00 °C996.00 hPa89.00 %1.40 °C 
16:00:002.90 °C996.20 hPa89.00 %1.30 °C 
15:45:003.00 °C996.30 hPa88.00 %1.20 °C 
15:30:003.30 °C996.50 hPa88.00 %1.50 °C 
15:15:003.50 °C996.60 hPa88.00 %1.70 °C 
15:00:003.90 °C997.00 hPa87.00 %1.90 °C 
14:45:004.90 °C997.60 hPa88.00 %3.10 °C 
14:30:005.30 °C997.70 hPa89.00 %3.60 °C 
14:15:005.90 °C998.00 hPa89.00 %4.20 °C 
14:00:006.20 °C998.20 hPa90.00 %4.70 °C 
13:45:005.90 °C998.40 hPa90.00 %4.40 °C 
13:30:005.60 °C998.70 hPa90.00 %4.10 °C 
13:15:005.10 °C999.00 hPa90.00 %3.60 °C 
13:00:004.50 °C999.20 hPa90.00 %3.00 °C 
12:45:004.00 °C999.70 hPa89.00 %2.40 °C 
12:30:004.10 °C1000.10 hPa88.00 %2.30 °C 
12:15:004.50 °C1000.30 hPa88.00 %2.70 °C 
12:00:004.50 °C1000.30 hPa89.00 %2.80 °C 
11:45:004.30 °C1000.50 hPa89.00 %2.70 °C 
11:30:004.30 °C1000.60 hPa89.00 %2.70 °C 
11:15:004.00 °C1000.90 hPa89.00 %2.40 °C 
11:00:003.80 °C1000.90 hPa89.00 %2.20 °C 
10:45:003.40 °C1000.80 hPa89.00 %1.80 °C 
10:30:003.20 °C1001.00 hPa89.00 %1.60 °C 
10:15:002.90 °C1001.30 hPa89.00 %1.30 °C 
10:00:002.70 °C1001.30 hPa89.00 %1.10 °C 
09:45:002.50 °C1001.50 hPa88.00 %0.70 °C 
09:30:002.40 °C1002.00 hPa87.00 %0.50 °C 
09:15:002.40 °C1002.30 hPa87.00 %0.50 °C 
09:00:002.40 °C1002.30 hPa86.00 %0.30 °C 
08:45:002.90 °C1002.50 hPa85.00 %0.60 °C 
08:30:003.20 °C1002.40 hPa85.00 %0.90 °C 
08:15:003.20 °C1002.20 hPa86.00 %1.10 °C 
08:00:003.00 °C1002.30 hPa87.00 %1.10 °C 
07:45:002.60 °C1002.30 hPa87.00 %0.70 °C 
07:30:002.50 °C1002.50 hPa87.00 %0.60 °C 
07:15:002.40 °C1002.60 hPa88.00 %0.60 °C 
07:00:002.40 °C1002.70 hPa88.00 %0.60 °C 
06:45:002.40 °C1002.90 hPa88.00 %0.60 °C 
06:30:002.40 °C1003.10 hPa88.00 %0.60 °C 
06:15:002.70 °C1003.30 hPa88.00 %0.90 °C 
06:00:002.80 °C1003.40 hPa89.00 %1.20 °C 
05:45:002.80 °C1003.50 hPa89.00 %1.20 °C 
05:30:002.70 °C1003.50 hPa89.00 %1.10 °C 
05:15:002.80 °C1003.80 hPa89.00 %1.20 °C 
05:00:002.80 °C1004.00 hPa89.00 %1.20 °C 
04:45:002.80 °C1004.20 hPa89.00 %1.20 °C 
04:30:002.70 °C1004.40 hPa89.00 %1.10 °C 
04:15:002.60 °C1004.60 hPa89.00 %1.00 °C 
04:00:002.50 °C1004.70 hPa89.00 %0.90 °C 
03:45:002.40 °C1004.80 hPa89.00 %0.80 °C 
03:30:002.30 °C1005.10 hPa88.00 %0.50 °C 
03:15:002.10 °C1005.20 hPa88.00 %0.30 °C 
03:00:002.20 °C1005.20 hPa88.00 %0.40 °C 
02:45:002.30 °C1005.20 hPa88.00 %0.50 °C 
02:30:002.40 °C1005.50 hPa88.00 %0.60 °C 
02:15:002.40 °C1005.70 hPa88.00 %0.60 °C 
02:00:002.30 °C1005.60 hPa88.00 %0.50 °C 
01:45:002.30 °C1005.90 hPa88.00 %0.50 °C 
01:30:002.40 °C1006.00 hPa88.00 %0.60 °C 
01:15:002.40 °C1006.40 hPa88.00 %0.60 °C 
01:00:002.40 °C1006.50 hPa88.00 %0.60 °C 
00:45:002.40 °C1006.60 hPa88.00 %0.60 °C 
00:30:002.50 °C1006.90 hPa87.00 %0.60 °C 
00:15:002.60 °C1007.20 hPa87.00 %0.70 °C 
00:00:002.90 °C1007.20 hPa86.00 %0.80 °C 

Permanenter Link zu dieser Seite: Wetter im Erzgebirge am 05.11.2016
Performance-Info: Die Erstellung der Seite / Statistik(en) / Tabelle(n) erforderte 5 Datenbankserver-Abfrage(n) und dauerte 90 Millisekunden. (Dieser Messwert ist von der Gesamt-Auslastung des Servers abhängig.)
Erzgebirge - Wetter | Erzgebirge - Wetter (Mobilgeräte) | Komplette Klimadatenbank